King of Scandinavia — OVOL2 — position and weather

sailwx.info

Track history (hours):
 
Tides and Currents Weather Stations Pressure Air Temp Water Temp Dewpoint Dewpoint Depression Visibility Wind Speed Wind Dir Waves Ship Positions

King of Scandinavia

Ship's website: http://www.dfds.co.uk/DSW/EN/OnBoard/na/KING.htm

Last reported at 2017-Sep-19 21:54 UTC. Time now 2017-Sep-20 00:34 UTC.
Position N 54°08' E 000°60'.

Length 166 m; beam 27.6 m; draft 6.2 m.

Type: Ship. MMSI: 220449000.

Date/timePositionNaut miles runAvg speedWind from/ knotsBaromVisibWave heightAir tempDewpointWater temp
2017-Sep-19 21:54N 54°08' E 000°60'1118.2
2017-Sep-19 21:18N 54°14' E 000°44'518.1
2017-Sep-19 21:00N 54°17' E 000°36'917.3
2017-Sep-19 20:30N 54°22' E 000°24'816.3
2017-Sep-19 20:00N 54°26' E 000°12'816.4
2017-Sep-19 19:30N 54°30' E 000°00'816.6
2017-Sep-19 19:00N 54°35' W 000°12'816.9
2017-Sep-19 18:30N 54°39' W 000°24'1617.1
2017-Sep-19 17:34N 54°48' W 000°48'117.0
2017-Sep-19 17:30N 54°49' W 000°49'917.3
2017-Sep-19 17:00N 54°53' W 001°02'917.4
2017-Sep-19 16:30N 54°58' W 001°15'714.1
2017-Sep-19 16:00N 55°00' W 001°26'1 1.7
2017-Sep-19 15:26N 54°59' W 001°27'0 0.0
2017-Sep-19 14:56N 54°59' W 001°27'0 0.0
2017-Sep-19 14:29N 54°59' W 001°27'0 0.0
2017-Sep-19 13:59N 54°59' W 001°27'0 0.0
2017-Sep-19 13:29N 54°59' W 001°27'0 0.0
2017-Sep-19 12:59N 54°59' W 001°27'0 0.0
2017-Sep-19 12:29N 54°59' W 001°27'0 0.0
2017-Sep-19 11:59N 54°59' W 001°27'0 0.0
2017-Sep-19 11:29N 54°59' W 001°27'0 0.0
2017-Sep-19 10:59N 54°59' W 001°27'0 0.0
2017-Sep-19 10:29N 54°59' W 001°27'0 0.0
2017-Sep-19 09:59N 54°59' W 001°27'0 0.0
2017-Sep-19 09:29N 54°59' W 001°27'0 0.0
2017-Sep-19 08:59N 54°59' W 001°27'0 0.0
2017-Sep-19 08:29N 54°59' W 001°27'0 0.3
2017-Sep-19 08:00N 54°60' W 001°27'4 7.9
2017-Sep-19 07:30N 55°00' W 001°20'817.0
2017-Sep-19 07:00N 54°56' W 001°08'817.0
2017-Sep-19 06:31N 54°51' W 000°55'917.7
2017-Sep-19 06:01N 54°46' W 000°43'918.4
2017-Sep-19 05:30N 54°42' W 000°29'917.9
2017-Sep-19 05:00N 54°37' W 000°16'917.6
2017-Sep-19 04:31N 54°32' W 000°03'917.5
2017-Sep-19 04:01N 54°27' E 000°09'815.5
2017-Sep-19 03:30N 54°23' E 000°20'17316.2
2017-Sep-18 16:50N 52°38' E 004°12'513.4
2017-Sep-18 16:30N 52°35' E 004°18'713.5
2017-Sep-18 16:00N 52°31' E 004°26'611.3
2017-Sep-18 15:30N 52°28' E 004°34'1 1.3
2017-Sep-18 15:00N 52°28' E 004°35'0 0.0
2017-Sep-18 14:29N 52°28' E 004°35'0 0.0
2017-Sep-18 13:59N 52°28' E 004°35'0 0.0
2017-Sep-18 13:26N 52°28' E 004°35'0 0.0
2017-Sep-18 12:59N 52°28' E 004°35'0 0.0
2017-Sep-18 12:29N 52°28' E 004°35'0 0.0
2017-Sep-18 11:59N 52°28' E 004°35'0 0.0
2017-Sep-18 11:29N 52°28' E 004°35'0 0.0
2017-Sep-18 10:59N 52°28' E 004°35'0 0.0
2017-Sep-18 10:29N 52°28' E 004°35'0 0.0
2017-Sep-18 09:59N 52°28' E 004°35'0 0.0
2017-Sep-18 09:29N 52°28' E 004°35'0 0.0
2017-Sep-18 08:59N 52°28' E 004°35'0 0.0
2017-Sep-18 08:29N 52°28' E 004°35'0 0.0
2017-Sep-18 07:59N 52°28' E 004°35'0 0.4
2017-Sep-18 07:30N 52°28' E 004°35'4 7.0
2017-Sep-18 07:00N 52°28' E 004°29'815.9
2017-Sep-18 06:31N 52°34' E 004°20'816.5
2017-Sep-18 06:00N 52°39' E 004°10'16317.7
2017-Sep-17 20:48N 54°18' E 000°33'518.2
2017-Sep-17 20:31N 54°21' E 000°25'918.2
2017-Sep-17 20:01N 54°26' E 000°12'918.1
2017-Sep-17 19:30N 54°31' W 000°01'918.3
2017-Sep-17 19:01N 54°36' W 000°14'918.0
2017-Sep-17 18:31N 54°40' W 000°28'1618.7
2017-Sep-17 17:40N 54°49' W 000°51'319.0
2017-Sep-17 17:31N 54°50' W 000°56'1019.1
2017-Sep-17 17:00N 54°55' W 001°10'918.8
2017-Sep-17 16:31N 55°01' W 001°23'3 5.1
2017-Sep-17 16:00N 54°59' W 001°27'0 0.0
2017-Sep-17 15:21N 54°59' W 001°27'0 0.0
2017-Sep-17 14:51N 54°59' W 001°27'0 0.0
2017-Sep-17 14:24N 54°59' W 001°27'0 0.0
2017-Sep-17 13:57N 54°59' W 001°27'0 0.0
2017-Sep-17 13:21N 54°59' W 001°27'0 0.0
2017-Sep-17 13:00N 54°59' W 001°27'0 0.0
2017-Sep-17 12:30N 54°59' W 001°27'0 0.0
2017-Sep-17 12:00N 54°59' W 001°27'0 0.0
2017-Sep-17 11:27N 54°59' W 001°27'0 0.0
2017-Sep-17 11:00N 54°59' W 001°27'0 0.0
2017-Sep-17 10:27N 54°59' W 001°27'0 0.0
2017-Sep-17 09:54N 54°59' W 001°27'0 0.0
2017-Sep-17 09:27N 54°59' W 001°27'0 0.0
2017-Sep-17 09:00N 54°59' W 001°27'0 0.0
2017-Sep-17 08:30N 54°59' W 001°27'0 0.1
2017-Sep-17 08:00N 54°59' W 001°27'4 7.7
2017-Sep-17 07:30N 55°00' W 001°21'816.7
2017-Sep-17 07:00N 54°56' W 001°08'816.9
2017-Sep-17 06:30N 54°52' W 000°56'2216.9
2017-Sep-17 05:12N 54°39' W 000°24'416.9
2017-Sep-17 04:57N 54°37' W 000°18'716.8
2017-Sep-17 04:31N 54°33' W 000°07'816.6
2017-Sep-17 04:00N 54°29' E 000°06'816.4
2017-Sep-17 03:30N 54°24' E 000°17'816.1
2017-Sep-17 03:00N 54°20' E 000°29'16816.2
2017-Sep-16 16:38N 52°38' E 004°13'213.6
2017-Sep-16 16:30N 52°37' E 004°16'713.8
2017-Sep-16 16:00N 52°32' E 004°24'713.3
2017-Sep-16 15:31N 52°28' E 004°32'2 3.5
2017-Sep-16 15:00N 52°28' E 004°35'0 0.0
2017-Sep-16 14:29N 52°28' E 004°35'0 0.0
2017-Sep-16 13:59N 52°28' E 004°35'0 0.0
2017-Sep-16 13:29N 52°28' E 004°35'0 0.0
2017-Sep-16 12:59N 52°28' E 004°35'0 0.0
2017-Sep-16 12:29N 52°28' E 004°35'0 0.0
2017-Sep-16 11:59N 52°28' E 004°35'0 0.0
2017-Sep-16 11:29N 52°28' E 004°35'0 0.0
2017-Sep-16 10:59N 52°28' E 004°35'0 0.0
2017-Sep-16 10:29N 52°28' E 004°35'0 0.0
2017-Sep-16 09:56N 52°28' E 004°35'0 0.0
2017-Sep-16 09:29N 52°28' E 004°35'0 0.0
2017-Sep-16 08:59N 52°28' E 004°35'0 0.0
2017-Sep-16 08:29N 52°28' E 004°35'0 0.0
2017-Sep-16 07:59N 52°28' E 004°35'0 0.2
2017-Sep-16 07:31N 52°28' E 004°35'4 7.6
2017-Sep-16 07:00N 52°28' E 004°29'714.3
2017-Sep-16 06:30N 52°33' E 004°20'714.5
2017-Sep-16 06:00N 52°38' E 004°12'1514.4
2017-Sep-16 04:59N 52°48' E 003°53'817.5
2017-Sep-16 04:30N 52°53' E 003°43'917.6
2017-Sep-16 04:00N 52°59' E 003°31'13018.6
2017-Sep-15 20:58N 54°17' E 000°35'918.9
2017-Sep-15 20:30N 54°22' E 000°23'918.7
2017-Sep-15 20:00N 54°27' E 000°09'918.6
2017-Sep-15 19:30N 54°32' W 000°05'918.6
2017-Sep-15 19:00N 54°37' W 000°18'2018.4
2017-Sep-15 17:54N 54°48' W 000°48'718.6
2017-Sep-15 17:30N 54°52' W 000°59'918.6
2017-Sep-15 17:00N 54°57' W 001°12'816.5
2017-Sep-15 16:30N 55°01' W 001°25'2 3.2
2017-Sep-15 16:00N 54°59' W 001°27'0 0.0
2017-Sep-15 15:30N 54°59' W 001°27'0 0.0
2017-Sep-15 14:52N 54°59' W 001°27'0 0.0
2017-Sep-15 14:22N 54°59' W 001°27'0 0.0
2017-Sep-15 13:52N 54°59' W 001°27'0 0.0
2017-Sep-15 13:25N 54°59' W 001°27'0 0.0
2017-Sep-15 12:55N 54°59' W 001°27'0 0.0
2017-Sep-15 12:25N 54°59' W 001°27'0 0.0
2017-Sep-15 11:55N 54°59' W 001°27'0 0.0
2017-Sep-15 11:28N 54°59' W 001°27'0 0.0
2017-Sep-15 10:58N 54°59' W 001°27'0 0.0
2017-Sep-15 10:28N 54°59' W 001°27'0 0.0
2017-Sep-15 09:58N 54°59' W 001°27'0 0.0
2017-Sep-15 09:28N 54°59' W 001°27'0 0.0
2017-Sep-15 08:58N 54°59' W 001°27'0 0.0
2017-Sep-15 08:30N 54°59' W 001°27'1 2.1
2017-Sep-15 08:00N 55°00' W 001°26'612.6
2017-Sep-15 07:31N 54°59' W 001°16'815.8
2017-Sep-15 07:00N 54°54' W 001°05'713.4
2017-Sep-15 06:30N 54°49' W 000°56'612.4
2017-Sep-15 06:00N 54°46' W 000°47'1513.0
2017-Sep-15 04:50N 54°39' W 000°24'413.1
2017-Sep-15 04:30N 54°36' W 000°17'714.2
2017-Sep-15 04:01N 54°33' W 000°07'918.4
2017-Sep-15 03:30N 54°28' E 000°06'918.3
2017-Sep-15 03:00N 54°23' E 000°20'15617.6
2017-Sep-14 18:07N 52°50' E 003°51'216.5
2017-Sep-14 17:58N 52°48' E 003°53'816.2
2017-Sep-14 17:30N 52°43' E 004°03'816.1
2017-Sep-14 17:00N 52°38' E 004°13'816.1
2017-Sep-14 16:31N 52°33' E 004°23'714.1
2017-Sep-14 16:00N 52°28' E 004°32'2 3.9
2017-Sep-14 15:30N 52°28' E 004°35'0 0.0
2017-Sep-14 15:00N 52°28' E 004°35'0 0.0
2017-Sep-14 14:28N 52°28' E 004°35'0 0.0
2017-Sep-14 13:58N 52°28' E 004°35'0 0.0
2017-Sep-14 13:28N 52°28' E 004°35'0 0.0
2017-Sep-14 12:58N 52°28' E 004°35'0 0.0
2017-Sep-14 12:28N 52°28' E 004°35'0 0.0
2017-Sep-14 11:58N 52°28' E 004°35'0 0.0
2017-Sep-14 11:28N 52°28' E 004°35'0 0.0
2017-Sep-14 10:58N 52°28' E 004°35'0 0.0
2017-Sep-14 10:28N 52°28' E 004°35'0 0.0
2017-Sep-14 09:58N 52°28' E 004°35'0 0.0
2017-Sep-14 09:25N 52°28' E 004°35'0 0.0
2017-Sep-14 08:58N 52°28' E 004°35'0 0.0
2017-Sep-14 08:28N 52°28' E 004°35'0 0.0
2017-Sep-14 07:58N 52°28' E 004°35'0 0.4
2017-Sep-14 07:30N 52°28' E 004°35'5 9.2
2017-Sep-14 07:00N 52°29' E 004°28'714.1
2017-Sep-14 06:30N 52°34' E 004°20'714.3
2017-Sep-14 06:00N 52°39' E 004°11'16317.3
2017-Sep-13 20:33N 54°18' E 000°33'118.5
2017-Sep-13 20:30N 54°19' E 000°31'918.3
2017-Sep-13 20:00N 54°24' E 000°18'918.2
2017-Sep-13 19:30N 54°28' E 000°05'918.1
2017-Sep-13 19:00N 54°33' W 000°08'917.8
2017-Sep-13 18:30N 54°38' W 000°22'1817.6
2017-Sep-13 17:30N 54°47' W 000°48'1019.2
2017-Sep-13 17:00N 54°53' W 001°01'1019.3
2017-Sep-13 16:30N 54°58' W 001°15'714.2
2017-Sep-13 16:00N 55°00' W 001°26'1 2.0
2017-Sep-13 15:30N 54°59' W 001°27'0 0.0
2017-Sep-13 14:53N 54°59' W 001°27'0 0.0
2017-Sep-13 14:26N 54°59' W 001°27'0 0.0
2017-Sep-13 13:56N 54°59' W 001°27'0 0.0
2017-Sep-13 13:26N 54°59' W 001°27'0 0.0
2017-Sep-13 12:56N 54°59' W 001°27'0 0.0
2017-Sep-13 12:26N 54°59' W 001°27'0 0.0
2017-Sep-13 11:56N 54°59' W 001°27'0 0.0
2017-Sep-13 11:29N 54°59' W 001°27'0 0.0
2017-Sep-13 10:59N 54°59' W 001°27'0 0.0
2017-Sep-13 10:26N 54°59' W 001°27'0 0.0
2017-Sep-13 09:56N 54°59' W 001°27'0 0.0
2017-Sep-13 09:29N 54°59' W 001°27'0 0.0
2017-Sep-13 08:59N 54°59' W 001°27'0 0.0
2017-Sep-13 08:30N 54°59' W 001°27'0 0.2
2017-Sep-13 08:00N 54°60' W 001°27'4 7.7
2017-Sep-13 07:30N 55°00' W 001°20'612.2
2017-Sep-13 07:00N 54°57' W 001°12'612.2
2017-Sep-13 06:30N 54°53' W 001°03'611.8
2017-Sep-13 06:00N 54°50' W 000°55'611.4
2017-Sep-13 05:30N 54°46' W 000°47'1410.7
2017-Sep-13 04:14N 54°39' W 000°27'517.5
2017-Sep-13 03:57N 54°38' W 000°19'819.1
2017-Sep-13 03:30N 54°33' W 000°06'1019.7
2017-Sep-13 03:00N 54°27' E 000°08'1019.8
2017-Sep-13 02:30N 54°21' E 000°21'13818.6
2017-Sep-12 19:06N 53°01' E 003°31'218.8
2017-Sep-12 18:58N 52°60' E 003°34'918.6
2017-Sep-12 18:28N 52°54' E 003°46'918.5
2017-Sep-12 18:00N 52°48' E 003°57'1614.3
2017-Sep-12 16:53N 52°37' E 004°16'512.4
2017-Sep-12 16:30N 52°34' E 004°21'612.3
2017-Sep-12 16:00N 52°30' E 004°29'4 8.7
2017-Sep-12 15:30N 52°28' E 004°35'0 0.0
2017-Sep-12 15:00N 52°28' E 004°35'0 0.0
2017-Sep-12 14:30N 52°28' E 004°35'0 0.0
2017-Sep-12 14:00N 52°28' E 004°35'0 0.0
2017-Sep-12 13:30N 52°28' E 004°35'0 0.0
2017-Sep-12 13:00N 52°28' E 004°35'0 0.0
2017-Sep-12 12:27N 52°28' E 004°35'0 0.0
2017-Sep-12 12:00N 52°28' E 004°35'0 0.0
2017-Sep-12 11:30N 52°28' E 004°35'0 0.0
2017-Sep-12 11:00N 52°28' E 004°35'0 0.0
2017-Sep-12 10:30N 52°28' E 004°35'0 0.0
2017-Sep-12 10:00N 52°28' E 004°35'0 0.0
2017-Sep-12 09:27N 52°28' E 004°35'0 0.0
2017-Sep-12 09:00N 52°28' E 004°35'0 0.0
2017-Sep-12 08:30N 52°28' E 004°35'0 0.0
2017-Sep-12 08:00N 52°28' E 004°35'0 0.0
2017-Sep-12 07:30N 52°28' E 004°35'3 6.5
2017-Sep-12 07:00N 52°28' E 004°30'612.8
2017-Sep-12 06:30N 52°33' E 004°23'713.8
2017-Sep-12 06:00N 52°38' E 004°14'714.7
2017-Sep-12 05:30N 52°42' E 004°05'917.0
2017-Sep-12 05:00N 52°48' E 003°54'14817.7
2017-Sep-11 20:39N 54°17' E 000°35'318.4
2017-Sep-11 20:30N 54°19' E 000°32'918.5
2017-Sep-11 20:01N 54°24' E 000°18'918.5
2017-Sep-11 19:30N 54°29' E 000°05'918.7
2017-Sep-11 19:00N 54°34' W 000°09'918.6
2017-Sep-11 18:31N 54°38' W 000°23'1718.5
2017-Sep-11 17:35N 54°47' W 000°48'118.0
2017-Sep-11 17:30N 54°48' W 000°50'917.9
2017-Sep-11 17:01N 54°53' W 001°03'917.6
2017-Sep-11 16:31N 54°58' W 001°16'713.3
2017-Sep-11 16:01N 55°00' W 001°26'1 1.9
2017-Sep-11 15:30N 54°59' W 001°27'0 0.0
2017-Sep-11 14:56N 54°59' W 001°27'0 0.0
2017-Sep-11 14:23N 54°59' W 001°27'0 0.0
2017-Sep-11 13:53N 54°59' W 001°27'0 0.0
2017-Sep-11 13:23N 54°59' W 001°27'0 0.0
2017-Sep-11 12:59N 54°59' W 001°27'0 0.0
2017-Sep-11 12:23N 54°59' W 001°27'0 0.0
2017-Sep-11 11:53N 54°59' W 001°27'0 0.0
2017-Sep-11 11:26N 54°59' W 001°27'0 0.0
2017-Sep-11 10:56N 54°59' W 001°27'0 0.0
2017-Sep-11 10:29N 54°59' W 001°27'0 0.0
2017-Sep-11 09:59N 54°59' W 001°27'0 0.0
2017-Sep-11 09:26N 54°59' W 001°27'0 0.0
2017-Sep-11 08:59N 54°59' W 001°27'0 0.0
2017-Sep-11 08:29N 54°59' W 001°27'0 0.2
2017-Sep-11 08:00N 54°60' W 001°27'4 8.5
2017-Sep-11 07:31N 55°00' W 001°20'713.1
2017-Sep-11 07:00N 54°57' W 001°10'713.5
2017-Sep-11 06:30N 54°53' W 001°00'815.7
2017-Sep-11 06:00N 54°49' W 000°49'815.6
2017-Sep-11 05:30N 54°44' W 000°37'1116.0
2017-Sep-11 04:51N 54°39' W 000°22'616.3
2017-Sep-11 04:29N 54°36' W 000°13'816.5
2017-Sep-11 04:00N 54°31' W 000°02'816.8
2017-Sep-11 03:31N 54°26' E 000°10'917.2
2017-Sep-11 03:00N 54°21' E 000°22'15717.1
2017-Sep-10 17:49N 52°48' E 003°55'516.8
2017-Sep-10 17:31N 52°45' E 004°01'816.7
2017-Sep-10 17:00N 52°40' E 004°12'714.7
2017-Sep-10 16:30N 52°35' E 004°20'714.4
2017-Sep-10 16:01N 52°29' E 004°29'4 8.6
2017-Sep-10 15:30N 52°28' E 004°35'0 0.0
2017-Sep-10 15:01N 52°28' E 004°35'0 0.0
2017-Sep-10 13:58N 52°28' E 004°35'0 0.0
2017-Sep-10 13:28N 52°28' E 004°35'0 0.0
2017-Sep-10 12:58N 52°28' E 004°35'0 0.0
2017-Sep-10 12:25N 52°28' E 004°35'0 0.0
2017-Sep-10 11:58N 52°28' E 004°35'0 0.0
2017-Sep-10 11:28N 52°28' E 004°35'0 0.0
2017-Sep-10 10:58N 52°28' E 004°35'0 0.0
2017-Sep-10 10:28N 52°28' E 004°35'0 0.0
2017-Sep-10 09:58N 52°28' E 004°35'0 0.0
2017-Sep-10 09:28N 52°28' E 004°35'0 0.0
2017-Sep-10 08:58N 52°28' E 004°35'0 0.0
2017-Sep-10 08:28N 52°28' E 004°35'0 0.0
2017-Sep-10 07:58N 52°28' E 004°35'0 0.0
2017-Sep-10 07:30N 52°28' E 004°35'2 4.8
2017-Sep-10 07:01N 52°28' E 004°31'816.1
2017-Sep-10 06:30N 52°34' E 004°21'816.5
2017-Sep-10 06:01N 52°40' E 004°12'816.6
2017-Sep-10 05:30N 52°45' E 004°02'  
Track history (hours):
 
Tides and Currents Weather Stations Pressure Air Temp Water Temp Dewpoint Dewpoint Depression Visibility Wind Speed Wind Dir Waves Ship Positions

King of Scandinavia

Ship's website: http://www.dfds.co.uk/DSW/EN/OnBoard/na/KING.htm

Last reported at 2017-Sep-19 21:54 UTC. Time now 2017-Sep-20 00:34 UTC.
Position N 54°08' E 000°60'.

Length 166 m; beam 27.6 m; draft 6.2 m.

Type: Ship. MMSI: 220449000.

Date/timePositionNaut miles runAvg speedWind from/ knotsBaromVisibWave heightAir tempDewpointWater temp
2017-Sep-19 21:54N 54°08' E 000°60'1118.2
2017-Sep-19 21:18N 54°14' E 000°44'518.1
2017-Sep-19 21:00N 54°17' E 000°36'917.3
2017-Sep-19 20:30N 54°22' E 000°24'816.3
2017-Sep-19 20:00N 54°26' E 000°12'816.4
2017-Sep-19 19:30N 54°30' E 000°00'816.6
2017-Sep-19 19:00N 54°35' W 000°12'816.9
2017-Sep-19 18:30N 54°39' W 000°24'1617.1
2017-Sep-19 17:34N 54°48' W 000°48'117.0
2017-Sep-19 17:30N 54°49' W 000°49'917.3
2017-Sep-19 17:00N 54°53' W 001°02'917.4
2017-Sep-19 16:30N 54°58' W 001°15'714.1
2017-Sep-19 16:00N 55°00' W 001°26'1 1.7
2017-Sep-19 15:26N 54°59' W 001°27'0 0.0
2017-Sep-19 14:56N 54°59' W 001°27'0 0.0
2017-Sep-19 14:29N 54°59' W 001°27'0 0.0
2017-Sep-19 13:59N 54°59' W 001°27'0 0.0
2017-Sep-19 13:29N 54°59' W 001°27'0 0.0
2017-Sep-19 12:59N 54°59' W 001°27'0 0.0
2017-Sep-19 12:29N 54°59' W 001°27'0 0.0
2017-Sep-19 11:59N 54°59' W 001°27'0 0.0
2017-Sep-19 11:29N 54°59' W 001°27'0 0.0
2017-Sep-19 10:59N 54°59' W 001°27'0 0.0
2017-Sep-19 10:29N 54°59' W 001°27'0 0.0
2017-Sep-19 09:59N 54°59' W 001°27'0 0.0
2017-Sep-19 09:29N 54°59' W 001°27'0 0.0
2017-Sep-19 08:59N 54°59' W 001°27'0 0.0
2017-Sep-19 08:29N 54°59' W 001°27'0 0.3
2017-Sep-19 08:00N 54°60' W 001°27'4 7.9
2017-Sep-19 07:30N 55°00' W 001°20'817.0
2017-Sep-19 07:00N 54°56' W 001°08'817.0
2017-Sep-19 06:31N 54°51' W 000°55'917.7
2017-Sep-19 06:01N 54°46' W 000°43'918.4
2017-Sep-19 05:30N 54°42' W 000°29'917.9
2017-Sep-19 05:00N 54°37' W 000°16'917.6
2017-Sep-19 04:31N 54°32' W 000°03'917.5
2017-Sep-19 04:01N 54°27' E 000°09'815.5
2017-Sep-19 03:30N 54°23' E 000°20'17316.2
2017-Sep-18 16:50N 52°38' E 004°12'513.4
2017-Sep-18 16:30N 52°35' E 004°18'713.5
2017-Sep-18 16:00N 52°31' E 004°26'611.3
2017-Sep-18 15:30N 52°28' E 004°34'1 1.3
2017-Sep-18 15:00N 52°28' E 004°35'0 0.0
2017-Sep-18 14:29N 52°28' E 004°35'0 0.0
2017-Sep-18 13:59N 52°28' E 004°35'0 0.0
2017-Sep-18 13:26N 52°28' E 004°35'0 0.0
2017-Sep-18 12:59N 52°28' E 004°35'0 0.0
2017-Sep-18 12:29N 52°28' E 004°35'0 0.0
2017-Sep-18 11:59N 52°28' E 004°35'0 0.0
2017-Sep-18 11:29N 52°28' E 004°35'0 0.0
2017-Sep-18 10:59N 52°28' E 004°35'0 0.0
2017-Sep-18 10:29N 52°28' E 004°35'0 0.0
2017-Sep-18 09:59N 52°28' E 004°35'0 0.0
2017-Sep-18 09:29N 52°28' E 004°35'0 0.0
2017-Sep-18 08:59N 52°28' E 004°35'0 0.0
2017-Sep-18 08:29N 52°28' E 004°35'0 0.0
2017-Sep-18 07:59N 52°28' E 004°35'0 0.4
2017-Sep-18 07:30N 52°28' E 004°35'4 7.0
2017-Sep-18 07:00N 52°28' E 004°29'815.9
2017-Sep-18 06:31N 52°34' E 004°20'816.5
2017-Sep-18 06:00N 52°39' E 004°10'16317.7
2017-Sep-17 20:48N 54°18' E 000°33'518.2
2017-Sep-17 20:31N 54°21' E 000°25'918.2
2017-Sep-17 20:01N 54°26' E 000°12'918.1
2017-Sep-17 19:30N 54°31' W 000°01'918.3
2017-Sep-17 19:01N 54°36' W 000°14'918.0
2017-Sep-17 18:31N 54°40' W 000°28'1618.7
2017-Sep-17 17:40N 54°49' W 000°51'319.0
2017-Sep-17 17:31N 54°50' W 000°56'1019.1
2017-Sep-17 17:00N 54°55' W 001°10'918.8
2017-Sep-17 16:31N 55°01' W 001°23'3 5.1
2017-Sep-17 16:00N 54°59' W 001°27'0 0.0
2017-Sep-17 15:21N 54°59' W 001°27'0 0.0
2017-Sep-17 14:51N 54°59' W 001°27'0 0.0
2017-Sep-17 14:24N 54°59' W 001°27'0 0.0
2017-Sep-17 13:57N 54°59' W 001°27'0 0.0
2017-Sep-17 13:21N 54°59' W 001°27'0 0.0
2017-Sep-17 13:00N 54°59' W 001°27'0 0.0
2017-Sep-17 12:30N 54°59' W 001°27'0 0.0
2017-Sep-17 12:00N 54°59' W 001°27'0 0.0
2017-Sep-17 11:27N 54°59' W 001°27'0 0.0
2017-Sep-17 11:00N 54°59' W 001°27'0 0.0
2017-Sep-17 10:27N 54°59' W 001°27'0 0.0
2017-Sep-17 09:54N 54°59' W 001°27'0 0.0
2017-Sep-17 09:27N 54°59' W 001°27'0 0.0
2017-Sep-17 09:00N 54°59' W 001°27'0 0.0
2017-Sep-17 08:30N 54°59' W 001°27'0 0.1
2017-Sep-17 08:00N 54°59' W 001°27'4 7.7
2017-Sep-17 07:30N 55°00' W 001°21'816.7
2017-Sep-17 07:00N 54°56' W 001°08'816.9
2017-Sep-17 06:30N 54°52' W 000°56'2216.9
2017-Sep-17 05:12N 54°39' W 000°24'416.9
2017-Sep-17 04:57N 54°37' W 000°18'716.8
2017-Sep-17 04:31N 54°33' W 000°07'816.6
2017-Sep-17 04:00N 54°29' E 000°06'816.4
2017-Sep-17 03:30N 54°24' E 000°17'816.1
2017-Sep-17 03:00N 54°20' E 000°29'16816.2
2017-Sep-16 16:38N 52°38' E 004°13'213.6
2017-Sep-16 16:30N 52°37' E 004°16'713.8
2017-Sep-16 16:00N 52°32' E 004°24'713.3
2017-Sep-16 15:31N 52°28' E 004°32'2 3.5
2017-Sep-16 15:00N 52°28' E 004°35'0 0.0
2017-Sep-16 14:29N 52°28' E 004°35'0 0.0
2017-Sep-16 13:59N 52°28' E 004°35'0 0.0
2017-Sep-16 13:29N 52°28' E 004°35'0 0.0
2017-Sep-16 12:59N 52°28' E 004°35'0 0.0
2017-Sep-16 12:29N 52°28' E 004°35'0 0.0
2017-Sep-16 11:59N 52°28' E 004°35'0 0.0
2017-Sep-16 11:29N 52°28' E 004°35'0 0.0
2017-Sep-16 10:59N 52°28' E 004°35'0 0.0
2017-Sep-16 10:29N 52°28' E 004°35'0 0.0
2017-Sep-16 09:56N 52°28' E 004°35'0 0.0
2017-Sep-16 09:29N 52°28' E 004°35'0 0.0
2017-Sep-16 08:59N 52°28' E 004°35'0 0.0
2017-Sep-16 08:29N 52°28' E 004°35'0 0.0
2017-Sep-16 07:59N 52°28' E 004°35'0 0.2
2017-Sep-16 07:31N 52°28' E 004°35'4 7.6
2017-Sep-16 07:00N 52°28' E 004°29'714.3
2017-Sep-16 06:30N 52°33' E 004°20'714.5
2017-Sep-16 06:00N 52°38' E 004°12'1514.4
2017-Sep-16 04:59N 52°48' E 003°53'817.5
2017-Sep-16 04:30N 52°53' E 003°43'917.6
2017-Sep-16 04:00N 52°59' E 003°31'13018.6
2017-Sep-15 20:58N 54°17' E 000°35'918.9
2017-Sep-15 20:30N 54°22' E 000°23'918.7
2017-Sep-15 20:00N 54°27' E 000°09'918.6
2017-Sep-15 19:30N 54°32' W 000°05'918.6
2017-Sep-15 19:00N 54°37' W 000°18'2018.4
2017-Sep-15 17:54N 54°48' W 000°48'718.6
2017-Sep-15 17:30N 54°52' W 000°59'918.6
2017-Sep-15 17:00N 54°57' W 001°12'816.5
2017-Sep-15 16:30N 55°01' W 001°25'2 3.2
2017-Sep-15 16:00N 54°59' W 001°27'0 0.0
2017-Sep-15 15:30N 54°59' W 001°27'0 0.0
2017-Sep-15 14:52N 54°59' W 001°27'0 0.0
2017-Sep-15 14:22N 54°59' W 001°27'0 0.0
2017-Sep-15 13:52N 54°59' W 001°27'0 0.0
2017-Sep-15 13:25N 54°59' W 001°27'0 0.0
2017-Sep-15 12:55N 54°59' W 001°27'0 0.0
2017-Sep-15 12:25N 54°59' W 001°27'0 0.0
2017-Sep-15 11:55N 54°59' W 001°27'0 0.0
2017-Sep-15 11:28N 54°59' W 001°27'0 0.0
2017-Sep-15 10:58N 54°59' W 001°27'0 0.0
2017-Sep-15 10:28N 54°59' W 001°27'0 0.0
2017-Sep-15 09:58N 54°59' W 001°27'0 0.0
2017-Sep-15 09:28N 54°59' W 001°27'0 0.0
2017-Sep-15 08:58N 54°59' W 001°27'0 0.0
2017-Sep-15 08:30N 54°59' W 001°27'1 2.1
2017-Sep-15 08:00N 55°00' W 001°26'612.6
2017-Sep-15 07:31N 54°59' W 001°16'815.8
2017-Sep-15 07:00N 54°54' W 001°05'713.4
2017-Sep-15 06:30N 54°49' W 000°56'612.4
2017-Sep-15 06:00N 54°46' W 000°47'1513.0
2017-Sep-15 04:50N 54°39' W 000°24'413.1
2017-Sep-15 04:30N 54°36' W 000°17'714.2
2017-Sep-15 04:01N 54°33' W 000°07'918.4
2017-Sep-15 03:30N 54°28' E 000°06'918.3
2017-Sep-15 03:00N 54°23' E 000°20'15617.6
2017-Sep-14 18:07N 52°50' E 003°51'216.5
2017-Sep-14 17:58N 52°48' E 003°53'816.2
2017-Sep-14 17:30N 52°43' E 004°03'816.1
2017-Sep-14 17:00N 52°38' E 004°13'816.1
2017-Sep-14 16:31N 52°33' E 004°23'714.1
2017-Sep-14 16:00N 52°28' E 004°32'2 3.9
2017-Sep-14 15:30N 52°28' E 004°35'0 0.0
2017-Sep-14 15:00N 52°28' E 004°35'0 0.0
2017-Sep-14 14:28N 52°28' E 004°35'0 0.0
2017-Sep-14 13:58N 52°28' E 004°35'0 0.0
2017-Sep-14 13:28N 52°28' E 004°35'0 0.0
2017-Sep-14 12:58N 52°28' E 004°35'0 0.0
2017-Sep-14 12:28N 52°28' E 004°35'0 0.0
2017-Sep-14 11:58N 52°28' E 004°35'0 0.0
2017-Sep-14 11:28N 52°28' E 004°35'0 0.0
2017-Sep-14 10:58N 52°28' E 004°35'0 0.0
2017-Sep-14 10:28N 52°28' E 004°35'0 0.0
2017-Sep-14 09:58N 52°28' E 004°35'0 0.0
2017-Sep-14 09:25N 52°28' E 004°35'0 0.0
2017-Sep-14 08:58N 52°28' E 004°35'0 0.0
2017-Sep-14 08:28N 52°28' E 004°35'0 0.0
2017-Sep-14 07:58N 52°28' E 004°35'0 0.4
2017-Sep-14 07:30N 52°28' E 004°35'5 9.2
2017-Sep-14 07:00N 52°29' E 004°28'714.1
2017-Sep-14 06:30N 52°34' E 004°20'714.3
2017-Sep-14 06:00N 52°39' E 004°11'16317.3
2017-Sep-13 20:33N 54°18' E 000°33'118.5
2017-Sep-13 20:30N 54°19' E 000°31'918.3
2017-Sep-13 20:00N 54°24' E 000°18'918.2
2017-Sep-13 19:30N 54°28' E 000°05'918.1
2017-Sep-13 19:00N 54°33' W 000°08'917.8
2017-Sep-13 18:30N 54°38' W 000°22'1817.6
2017-Sep-13 17:30N 54°47' W 000°48'1019.2
2017-Sep-13 17:00N 54°53' W 001°01'1019.3
2017-Sep-13 16:30N 54°58' W 001°15'714.2
2017-Sep-13 16:00N 55°00' W 001°26'1 2.0
2017-Sep-13 15:30N 54°59' W 001°27'0 0.0
2017-Sep-13 14:53N 54°59' W 001°27'0 0.0
2017-Sep-13 14:26N 54°59' W 001°27'0 0.0
2017-Sep-13 13:56N 54°59' W 001°27'0 0.0
2017-Sep-13 13:26N 54°59' W 001°27'0 0.0
2017-Sep-13 12:56N 54°59' W 001°27'0 0.0
2017-Sep-13 12:26N 54°59' W 001°27'0 0.0
2017-Sep-13 11:56N 54°59' W 001°27'0 0.0
2017-Sep-13 11:29N 54°59' W 001°27'0 0.0
2017-Sep-13 10:59N 54°59' W 001°27'0 0.0
2017-Sep-13 10:26N 54°59' W 001°27'0 0.0
2017-Sep-13 09:56N 54°59' W 001°27'0 0.0
2017-Sep-13 09:29N 54°59' W 001°27'0 0.0
2017-Sep-13 08:59N 54°59' W 001°27'0 0.0
2017-Sep-13 08:30N 54°59' W 001°27'0 0.2
2017-Sep-13 08:00N 54°60' W 001°27'4 7.7
2017-Sep-13 07:30N 55°00' W 001°20'612.2
2017-Sep-13 07:00N 54°57' W 001°12'612.2
2017-Sep-13 06:30N 54°53' W 001°03'611.8
2017-Sep-13 06:00N 54°50' W 000°55'611.4
2017-Sep-13 05:30N 54°46' W 000°47'1410.7
2017-Sep-13 04:14N 54°39' W 000°27'517.5
2017-Sep-13 03:57N 54°38' W 000°19'819.1
2017-Sep-13 03:30N 54°33' W 000°06'1019.7
2017-Sep-13 03:00N 54°27' E 000°08'1019.8
2017-Sep-13 02:30N 54°21' E 000°21'13818.6
2017-Sep-12 19:06N 53°01' E 003°31'218.8
2017-Sep-12 18:58N 52°60' E 003°34'918.6
2017-Sep-12 18:28N 52°54' E 003°46'918.5
2017-Sep-12 18:00N 52°48' E 003°57'1614.3
2017-Sep-12 16:53N 52°37' E 004°16'512.4
2017-Sep-12 16:30N 52°34' E 004°21'612.3
2017-Sep-12 16:00N 52°30' E 004°29'4 8.7
2017-Sep-12 15:30N 52°28' E 004°35'0 0.0
2017-Sep-12 15:00N 52°28' E 004°35'0 0.0
2017-Sep-12 14:30N 52°28' E 004°35'0 0.0
2017-Sep-12 14:00N 52°28' E 004°35'0 0.0
2017-Sep-12 13:30N 52°28' E 004°35'0 0.0
2017-Sep-12 13:00N 52°28' E 004°35'0 0.0
2017-Sep-12 12:27N 52°28' E 004°35'0 0.0
2017-Sep-12 12:00N 52°28' E 004°35'0 0.0
2017-Sep-12 11:30N 52°28' E 004°35'0 0.0
2017-Sep-12 11:00N 52°28' E 004°35'0 0.0
2017-Sep-12 10:30N 52°28' E 004°35'0 0.0
2017-Sep-12 10:00N 52°28' E 004°35'0 0.0
2017-Sep-12 09:27N 52°28' E 004°35'0 0.0
2017-Sep-12 09:00N 52°28' E 004°35'0 0.0
2017-Sep-12 08:30N 52°28' E 004°35'0 0.0
2017-Sep-12 08:00N 52°28' E 004°35'0 0.0
2017-Sep-12 07:30N 52°28' E 004°35'3 6.5
2017-Sep-12 07:00N 52°28' E 004°30'612.8
2017-Sep-12 06:30N 52°33' E 004°23'713.8
2017-Sep-12 06:00N 52°38' E 004°14'714.7
2017-Sep-12 05:30N 52°42' E 004°05'917.0
2017-Sep-12 05:00N 52°48' E 003°54'14817.7
2017-Sep-11 20:39N 54°17' E 000°35'318.4
2017-Sep-11 20:30N 54°19' E 000°32'918.5
2017-Sep-11 20:01N 54°24' E 000°18'918.5
2017-Sep-11 19:30N 54°29' E 000°05'918.7
2017-Sep-11 19:00N 54°34' W 000°09'918.6
2017-Sep-11 18:31N 54°38' W 000°23'1718.5
2017-Sep-11 17:35N 54°47' W 000°48'118.0
2017-Sep-11 17:30N 54°48' W 000°50'917.9
2017-Sep-11 17:01N 54°53' W 001°03'917.6
2017-Sep-11 16:31N 54°58' W 001°16'713.3
2017-Sep-11 16:01N 55°00' W 001°26'1 1.9
2017-Sep-11 15:30N 54°59' W 001°27'0 0.0
2017-Sep-11 14:56N 54°59' W 001°27'0 0.0
2017-Sep-11 14:23N 54°59' W 001°27'0 0.0
2017-Sep-11 13:53N 54°59' W 001°27'0 0.0
2017-Sep-11 13:23N 54°59' W 001°27'0 0.0
2017-Sep-11 12:59N 54°59' W 001°27'0 0.0
2017-Sep-11 12:23N 54°59' W 001°27'0 0.0
2017-Sep-11 11:53N 54°59' W 001°27'0 0.0
2017-Sep-11 11:26N 54°59' W 001°27'0 0.0
2017-Sep-11 10:56N 54°59' W 001°27'0 0.0
2017-Sep-11 10:29N 54°59' W 001°27'0 0.0
2017-Sep-11 09:59N 54°59' W 001°27'0 0.0
2017-Sep-11 09:26N 54°59' W 001°27'0 0.0
2017-Sep-11 08:59N 54°59' W 001°27'0 0.0
2017-Sep-11 08:29N 54°59' W 001°27'0 0.2
2017-Sep-11 08:00N 54°60' W 001°27'4 8.5
2017-Sep-11 07:31N 55°00' W 001°20'713.1
2017-Sep-11 07:00N 54°57' W 001°10'713.5
2017-Sep-11 06:30N 54°53' W 001°00'815.7
2017-Sep-11 06:00N 54°49' W 000°49'815.6
2017-Sep-11 05:30N 54°44' W 000°37'1116.0
2017-Sep-11 04:51N 54°39' W 000°22'616.3
2017-Sep-11 04:29N 54°36' W 000°13'816.5
2017-Sep-11 04:00N 54°31' W 000°02'816.8
2017-Sep-11 03:31N 54°26' E 000°10'917.2
2017-Sep-11 03:00N 54°21' E 000°22'15717.1
2017-Sep-10 17:49N 52°48' E 003°55'516.8
2017-Sep-10 17:31N 52°45' E 004°01'816.7
2017-Sep-10 17:00N 52°40' E 004°12'714.7
2017-Sep-10 16:30N 52°35' E 004°20'714.4
2017-Sep-10 16:01N 52°29' E 004°29'4 8.6
2017-Sep-10 15:30N 52°28' E 004°35'0 0.0
2017-Sep-10 15:01N 52°28' E 004°35'0 0.0
2017-Sep-10 13:58N 52°28' E 004°35'0 0.0
2017-Sep-10 13:28N 52°28' E 004°35'0 0.0
2017-Sep-10 12:58N 52°28' E 004°35'0 0.0
2017-Sep-10 12:25N 52°28' E 004°35'0 0.0
2017-Sep-10 11:58N 52°28' E 004°35'0 0.0
2017-Sep-10 11:28N 52°28' E 004°35'0 0.0
2017-Sep-10 10:58N 52°28' E 004°35'0 0.0
2017-Sep-10 10:28N 52°28' E 004°35'0 0.0
2017-Sep-10 09:58N 52°28' E 004°35'0 0.0
2017-Sep-10 09:28N 52°28' E 004°35'0 0.0
2017-Sep-10 08:58N 52°28' E 004°35'0 0.0
2017-Sep-10 08:28N 52°28' E 004°35'0 0.0
2017-Sep-10 07:58N 52°28' E 004°35'0 0.0
2017-Sep-10 07:30N 52°28' E 004°35'2 4.8
2017-Sep-10 07:01N 52°28' E 004°31'816.1
2017-Sep-10 06:30N 52°34' E 004°21'816.5
2017-Sep-10 06:01N 52°40' E 004°12'816.6
2017-Sep-10 05:30N 52°45' E 004°02'  

Dump ship's entire track history